Terminal Aerodrome Forecast
Issued by NWS Jackson, MS

Home | Current Version | Previous Version | Text Only | Print | Product List | Glossary On
Versions: 1 2 3 4 5 6 7 8 9 10 11 12 13 14 15 16 17 18 19 20 21 22 23 24 25 26 27 28
000
FTUS44 KJAN 300547 RRA
TAFGLH
TAF
KGLH 300547Z 3006/3106 VRB05KT P6SM FEW050 SCT120 BKN250
     FM301000 VRB03KT 5SM BR FEW150 SCT250
     FM301330 36006KT P6SM SCT030 SCT250
     FM301900 33006KT P6SM VCTS SCT040 BKN060CB BKN250
     FM310100 VRB03KT P6SM FEW040 SCT070 BKN250=

USA.gov is the U.S. government's official web portal to all federal, state and local government web resources and services.